Time;durP1;ratioP1;P1;durP2;ratioP2;P2;SDS_P1;SDS_P2;PMS_P1;PMS_P2;Temp;Humidity;BMP_temperature;BMP_pressure;BME280_temperature;BME280_humidity;BME280_pressure;Samples;Min_cycle;Max_cycle;Signal;HPM_P1;HPM_P2
2021/05/11 00:01:42;;;;;;;14.53;4.03;;;;;;;14.95;40.09;98953.16;125448;1104;103092;-71
2021/05/11 00:04:12;;;;;;;12.07;4.07;;;;;;;14.96;39.71;98944.13;125437;1105;103109;-72
2021/05/11 00:06:40;;;;;;;9.00;3.93;;;;;;;14.96;39.89;98951.31;125532;1104;104725;-71
2021/05/11 00:09:08;;;;;;;14.03;3.77;;;;;;;14.96;39.75;98944.13;125401;1105;103078;-71
2021/05/11 00:11:36;;;;;;;15.53;4.03;;;;;;;14.96;39.95;98949.48;125521;1100;103065;-70
2021/05/11 00:14:06;;;;;;;11.07;3.80;;;;;;;14.96;40.27;98940.59;125536;1104;103001;-71
2021/05/11 00:16:35;;;;;;;13.63;3.90;;;;;;;14.92;40.14;98933.83;125546;1104;103001;-72
2021/05/11 00:19:07;;;;;;;10.00;3.90;;;;;;;14.88;40.46;98946.67;125568;1104;102965;-68
2021/05/11 00:21:36;;;;;;;7.50;3.47;;;;;;;14.83;40.34;98946.25;125562;1104;103069;-72
2021/05/11 00:24:04;;;;;;;10.03;3.93;;;;;;;14.79;40.17;98936.81;125498;1104;103091;-71
2021/05/11 00:26:38;;;;;;;9.40;4.27;;;;;;;14.76;40.38;98932.59;125599;1104;103030;-70
2021/05/11 00:29:05;;;;;;;;;;;;;;;14.69;40.38;98937.66;125590;1104;103688;-69
2021/05/11 00:31:33;;;;;;;11.60;3.77;;;;;;;14.66;40.20;98937.07;125542;1104;103097;-70
2021/05/11 00:34:02;;;;;;;9.50;3.70;;;;;;;14.66;40.25;98940.61;125545;1104;103130;-71
2021/05/11 00:36:30;;;;;;;7.93;3.37;;;;;;;14.65;40.12;98938.92;125537;1104;103682;-70
2021/05/11 00:38:58;;;;;;;8.03;3.33;;;;;;;14.59;40.86;98924.25;125528;1100;103019;-71
2021/05/11 00:41:26;;;;;;;12.67;4.57;;;;;;;14.54;40.89;98939.88;125524;1104;103469;-71
2021/05/11 00:43:54;;;;;;;8.05;3.80;;;;;;;14.47;40.67;98933.39;125526;1104;103036;-72
2021/05/11 00:46:22;;;;;;;8.93;3.80;;;;;;;14.42;40.81;98933.82;125542;1104;103203;-71
2021/05/11 00:48:50;;;;;;;8.60;3.60;;;;;;;14.39;41.58;98933.27;125476;1104;103152;-70
2021/05/11 00:51:18;;;;;;;8.50;3.60;;;;;;;14.32;41.41;98927.61;125518;1104;103112;-69
2021/05/11 00:53:46;;;;;;;10.67;4.00;;;;;;;14.28;41.39;98928.87;125538;1104;103027;-70
2021/05/11 00:56:16;;;;;;;8.10;3.67;;;;;;;14.24;41.63;98927.48;125576;1104;103171;-72
2021/05/11 00:58:44;;;;;;;9.53;4.20;;;;;;;14.18;41.59;98923.52;125627;1104;103124;-70
2021/05/11 01:01:11;;;;;;;9.20;3.87;;;;;;;14.16;41.88;98924.64;125530;1100;103504;-71
2021/05/11 01:03:40;;;;;;;9.37;3.67;;;;;;;14.12;41.88;98919.57;125513;1099;103051;-70
2021/05/11 01:06:08;;;;;;;11.47;3.60;;;;;;;14.11;42.50;98922.37;125542;1100;103145;-71
2021/05/11 01:08:36;;;;;;;7.17;3.60;;;;;;;14.09;42.58;98914.50;125502;1104;103098;-71
2021/05/11 01:11:04;;;;;;;9.50;3.87;;;;;;;14.07;42.66;98910.25;125545;1100;103008;-70
2021/05/11 01:13:32;;;;;;;8.03;3.47;;;;;;;14.05;42.77;98910.41;125502;1104;103131;-69
2021/05/11 01:16:00;;;;;;;6.50;3.23;;;;;;;14.05;42.63;98912.25;125528;1104;103025;-70
2021/05/11 01:18:32;;;;;;;9.23;3.47;;;;;;;14.05;42.38;98907.73;125502;1100;103127;-70
2021/05/11 01:21:15;;;;;;;9.27;3.27;;;;;;;14.06;42.37;98905.92;125452;1104;103206;-72
2021/05/11 01:24:06;;;;;;;6.53;3.20;;;;;;;14.05;42.11;98912.25;125538;1100;103158;-72
2021/05/11 01:26:58;;;;;;;8.47;3.20;;;;;;;14.03;42.33;98912.38;125487;1099;102990;-69
2021/05/11 01:54:12;;;;;;;28.67;12.10;;;;;;;13.60;42.67;98909.03;125352;1100;103111;-70
2021/05/11 01:57:17;;;;;;;24.37;10.30;;;;;;;13.53;42.81;98908.70;125513;1104;102981;-69
2021/05/11 02:24:00;;;;;;;21.20;9.30;;;;;;;12.88;43.30;98898.23;125405;1107;103000;-71
2021/05/11 02:26:27;;;;;;;21.40;8.70;;;;;;;12.85;43.54;98906.49;125390;1107;103003;-69
2021/05/11 02:28:55;;;;;;;23.05;7.50;;;;;;;12.81;43.33;98897.05;125507;1104;103096;-70
2021/05/11 02:31:23;;;;;;;18.73;8.17;;;;;;;12.78;43.37;98900.84;125401;1107;103020;-69
2021/05/11 02:33:53;;;;;;;18.00;7.10;;;;;;;12.76;43.50;98901.93;125376;1100;103550;-69
2021/05/11 02:36:20;;;;;;;19.73;8.23;;;;;;;12.71;43.49;98905.00;125349;1107;103461;-69
2021/05/11 02:38:48;;;;;;;19.07;7.43;;;;;;;12.67;43.69;98911.56;125492;1104;103029;-70
2021/05/11 02:41:16;;;;;;;20.77;9.10;;;;;;;12.63;43.62;98905.63;125396;1107;103054;-71
2021/05/11 02:43:44;;;;;;;18.90;7.70;;;;;;;12.57;43.75;98905.30;125520;1104;103126;-69
2021/05/11 02:46:12;;;;;;;19.23;8.17;;;;;;;12.51;43.88;98910.17;125348;1098;103025;-70
2021/05/11 02:48:40;;;;;;;22.57;8.80;;;;;;;12.46;43.96;98898.20;125534;1100;103094;-69
2021/05/11 02:51:08;;;;;;;22.27;9.70;;;;;;;12.41;43.92;98905.73;125409;1100;103501;-70
2021/05/11 02:53:36;;;;;;;21.50;9.10;;;;;;;12.35;44.19;98907.94;125429;1107;103125;-71
2021/05/11 02:56:04;;;;;;;19.13;8.33;;;;;;;12.32;44.13;98900.19;125399;1100;103246;-71
2021/05/11 02:58:35;;;;;;;22.15;9.75;;;;;;;12.31;44.10;98908.33;125500;1104;103187;-70
2021/05/11 03:01:03;;;;;;;21.57;8.50;;;;;;;12.25;44.52;98906.16;125444;1107;103495;-69
2021/05/11 03:03:31;;;;;;;23.97;11.10;;;;;;;12.21;44.36;98905.58;125497;1104;103083;-69
2021/05/11 03:05:59;;;;;;;19.90;8.67;;;;;;;12.18;44.35;98914.66;125497;1104;103115;-70
2021/05/11 03:08:27;;;;;;;23.05;9.05;;;;;;;12.16;44.39;98905.11;125547;1100;103094;-71
2021/05/11 03:10:55;;;;;;;21.57;8.97;;;;;;;12.11;44.61;98916.13;125424;1104;103100;-70
2021/05/11 03:13:23;;;;;;;23.03;9.53;;;;;;;12.05;44.67;98912.16;125502;1100;103126;-70
2021/05/11 03:15:50;;;;;;;24.07;9.73;;;;;;;12.03;44.62;98911.44;125439;1104;103090;-70
2021/05/11 03:18:18;;;;;;;25.17;10.00;;;;;;;12.02;44.77;98917.73;125471;1104;103111;-71
2021/05/11 03:20:46;;;;;;;21.80;9.67;;;;;;;11.99;44.79;98923.31;125536;1104;103152;-71
2021/05/11 03:23:14;;;;;;;24.27;10.53;;;;;;;11.96;44.84;98912.87;125575;1104;103022;-71
2021/05/11 03:25:42;;;;;;;21.80;9.67;;;;;;;11.94;45.02;98921.97;125642;1099;103085;-71
2021/05/11 03:28:10;;;;;;;21.93;9.60;;;;;;;11.91;44.95;98918.58;125591;1104;103115;-70
2021/05/11 03:30:41;;;;;;;22.87;9.87;;;;;;;11.90;45.08;98913.36;125537;1104;103042;-71
2021/05/11 03:33:10;;;;;;;24.00;10.13;;;;;;;11.90;45.13;98921.35;125534;1104;103243;-69
2021/05/11 03:35:38;;;;;;;23.23;10.53;;;;;;;11.87;45.21;98919.80;125550;1104;103155;-70
2021/05/11 03:38:07;;;;;;;21.83;10.17;;;;;;;11.85;45.32;98924.41;125524;1104;103019;-70
2021/05/11 03:40:35;;;;;;;23.93;10.83;;;;;;;11.83;45.49;98923.67;125544;1104;103003;-70
2021/05/11 03:43:24;;;;;;;21.57;9.90;;;;;;;11.82;45.49;98929.14;125545;1104;103023;-70
2021/05/11 03:45:56;;;;;;;25.93;10.77;;;;;;;11.81;45.49;98920.28;125546;1105;103186;-69
2021/05/11 03:48:24;;;;;;;24.15;10.28;;;;;;;11.81;45.63;98916.79;125475;1100;103093;-69
2021/05/11 03:50:53;;;;;;;25.20;11.37;;;;;;;11.80;45.82;98915.92;125531;1099;103144;-70
2021/05/11 03:53:21;;;;;;;23.35;10.85;;;;;;;11.81;45.69;98914.95;125410;1105;103075;-69
2021/05/11 03:55:51;;;;;;;24.37;11.07;;;;;;;11.82;45.95;98915.82;125544;1104;103054;-71
2021/05/11 03:58:20;;;;;;;21.80;9.63;;;;;;;11.83;46.04;98918.34;125541;1100;103087;-72
2021/05/11 04:00:48;;;;;;;24.83;10.37;;;;;;;11.85;46.08;98910.22;125479;1104;103035;-72
2021/05/11 04:03:16;;;;;;;22.27;9.77;;;;;;;11.85;46.08;98916.41;125531;1104;103126;-71
2021/05/11 04:05:48;;;;;;;23.43;10.07;;;;;;;11.85;46.24;98919.07;125479;1100;103016;-70
2021/05/11 04:08:34;;;;;;;23.17;10.57;;;;;;;11.87;46.29;98935.79;125572;1099;103445;-70
2021/05/11 04:16:24;;;;;;;25.13;8.97;;;;;;;11.96;46.46;98918.20;125384;1100;103022;-72
2021/05/11 04:18:54;;;;;;;21.63;9.07;;;;;;;12.01;46.47;98918.70;125481;1104;103101;-70
2021/05/11 04:21:23;;;;;;;20.73;8.50;;;;;;;12.04;46.59;98913.13;125520;1104;102993;-70
2021/05/11 04:23:52;;;;;;;19.90;8.17;;;;;;;12.09;46.68;98911.91;125544;1104;103088;-69
2021/05/11 04:26:23;;;;;;;19.85;8.45;;;;;;;12.12;46.71;98915.16;125564;1104;103282;-70
2021/05/11 04:28:51;;;;;;;25.50;9.03;;;;;;;12.20;47.02;98920.72;125529;1104;103426;-71
2021/05/11 04:31:21;;;;;;;18.40;7.67;;;;;;;12.24;46.82;98921.30;125538;1104;102997;-71
2021/05/11 04:33:49;;;;;;;21.00;7.53;;;;;;;12.30;46.77;98919.97;125538;1104;103068;-71
2021/05/11 04:36:17;;;;;;;18.93;7.90;;;;;;;12.35;46.76;98917.77;125539;1104;103159;-71
2021/05/11 04:38:46;;;;;;;21.00;7.33;;;;;;;12.40;47.00;98912.91;125467;1104;103019;-71
2021/05/11 04:41:14;;;;;;;18.60;7.60;;;;;;;12.47;46.92;98919.41;125517;1104;103003;-70
2021/05/11 04:43:44;;;;;;;22.10;7.30;;;;;;;12.55;47.08;98918.78;125510;1100;103022;-69
2021/05/11 04:48:52;;;;;;;15.30;5.95;;;;;;;12.83;47.38;98916.45;125559;1104;103072;-69
2021/05/11 04:51:22;;;;;;;12.57;4.70;;;;;;;13.02;47.59;98914.91;125560;1100;103022;-70
2021/05/11 04:53:50;;;;;;;9.43;4.27;;;;;;;13.19;47.84;98914.28;125549;1104;102997;-69
2021/05/11 04:56:19;;;;;;;10.43;4.37;;;;;;;13.35;47.72;98910.30;125462;1104;103152;-69
2021/05/11 04:58:47;;;;;;;14.10;4.97;;;;;;;13.50;47.74;98914.31;125561;1100;103087;-70
2021/05/11 05:01:15;;;;;;;11.30;4.47;;;;;;;13.67;47.80;98914.67;125519;1104;103135;-70
2021/05/11 05:03:46;;;;;;;13.73;4.33;;;;;;;13.80;47.67;98912.61;125523;1104;103083;-70
2021/05/11 05:06:15;;;;;;;9.83;3.77;;;;;;;13.94;47.65;98902.49;125499;1100;103096;-71
2021/05/11 05:08:43;;;;;;;9.90;4.05;;;;;;;14.06;47.80;98912.09;125553;1104;103020;-74
2021/05/11 05:11:11;;;;;;;11.53;4.20;;;;;;;14.18;47.62;98904.78;125522;1104;102988;-74
2021/05/11 05:13:40;;;;;;;7.07;3.73;;;;;;;14.28;47.71;98905.66;125501;1105;103135;-74
2021/05/11 05:16:08;;;;;;;9.83;3.70;;;;;;;14.39;47.59;98903.84;125566;1100;103046;-74
2021/05/11 05:18:36;;;;;;;13.90;4.00;;;;;;;14.47;47.73;98903.95;125569;1100;103019;-75
2021/05/11 05:21:08;;;;;;;11.43;4.00;;;;;;;14.57;47.83;98904.80;125530;1104;103101;-74
2021/05/11 05:23:44;;;;;;;16.00;3.97;;;;;;;14.68;47.65;98897.63;125572;1099;103087;-74
2021/05/11 05:26:16;;;;;;;11.03;4.50;;;;;;;14.76;47.57;98889.77;125520;1104;104518;-75
2021/05/11 05:28:44;;;;;;;9.70;4.20;;;;;;;14.83;47.51;98898.91;125537;1104;103699;-75
2021/05/11 05:31:13;;;;;;;12.70;4.20;;;;;;;14.89;47.72;98898.31;125555;1104;103099;-74
2021/05/11 05:33:41;;;;;;;13.03;4.20;;;;;;;14.99;47.88;98894.78;125386;1104;103709;-73
2021/05/11 05:36:09;;;;;;;10.57;4.50;;;;;;;15.04;47.69;98895.20;125542;1100;103093;-74
2021/05/11 05:38:40;;;;;;;16.83;5.07;;;;;;;15.10;47.53;98899.98;125530;1104;103246;-73
2021/05/11 05:41:12;;;;;;;15.43;5.07;;;;;;;15.18;47.62;98891.20;125516;1104;103017;-77
2021/05/11 05:43:40;;;;;;;15.40;5.37;;;;;;;15.26;47.69;98895.86;125659;1100;103091;-72
2021/05/11 05:46:08;;;;;;;17.97;5.30;;;;;;;15.33;47.63;98892.44;125391;1105;103144;-75
2021/05/11 05:48:37;;;;;;;15.57;5.80;;;;;;;15.42;47.67;98898.73;125597;1100;103094;-74
2021/05/11 05:51:05;;;;;;;19.35;5.80;;;;;;;15.48;47.54;98892.80;125614;1104;102992;-73
2021/05/11 05:53:40;;;;;;;16.80;6.60;;;;;;;15.56;47.67;98896.58;125506;1104;103080;-73
2021/05/11 05:56:09;;;;;;;16.40;6.40;;;;;;;15.62;47.62;98891.45;125552;1104;103523;-74
2021/05/11 05:58:39;;;;;;;15.93;5.80;;;;;;;15.69;47.79;98890.87;125548;1104;103003;-73
2021/05/11 06:01:08;;;;;;;17.13;5.60;;;;;;;15.76;47.71;98897.33;125533;1100;103132;-74
2021/05/11 06:03:51;;;;;;;18.57;5.40;;;;;;;15.84;47.67;98894.75;125614;1099;103122;-73
2021/05/11 06:06:19;;;;;;;11.53;4.83;;;;;;;15.93;47.79;98885.80;125384;1104;103119;-75
2021/05/11 06:08:48;;;;;;;13.13;5.17;;;;;;;16.03;47.74;98890.27;125465;1104;102997;-74
2021/05/11 06:11:28;;;;;;;17.43;5.30;;;;;;;16.14;47.82;98887.38;125519;1104;103003;-74
2021/05/11 06:19:21;;;;;;;18.00;5.80;;;;;;;16.43;47.77;98886.30;125507;1100;103448;-74
2021/05/11 06:21:50;;;;;;;14.90;6.20;;;;;;;16.52;47.98;98884.53;125547;1105;103125;-73
2021/05/11 06:24:19;;;;;;;17.03;5.97;;;;;;;16.61;47.81;98882.78;125369;1105;103069;-73
2021/05/11 06:26:47;;;;;;;11.70;5.03;;;;;;;16.69;47.79;98888.23;125549;1104;103559;-74
2021/05/11 06:29:18;;;;;;;14.23;5.47;;;;;;;16.76;48.03;98875.00;125531;1100;103093;-74
2021/05/11 06:31:47;;;;;;;17.70;5.80;;;;;;;16.85;48.02;98878.59;125453;1100;103059;-73
2021/05/11 06:34:15;;;;;;;16.43;5.77;;;;;;;16.95;48.01;98871.28;125470;1104;103000;-73
2021/05/11 06:36:43;;;;;;;14.43;5.30;;;;;;;17.07;47.99;98869.20;125618;1104;102993;-74
2021/05/11 06:39:14;;;;;;;11.80;4.90;;;;;;;17.18;48.27;98871.63;125648;1100;103098;-74
2021/05/11 06:41:47;;;;;;;17.57;5.43;;;;;;;17.32;48.09;98866.66;125374;1100;103247;-75
2021/05/11 06:49:47;;;;;;;10.07;3.80;;;;;;;17.90;48.16;98865.04;125435;1104;103120;-75
2021/05/11 06:55:06;;;;;;;9.80;3.85;;;;;;;18.33;48.13;98873.05;125776;1104;103444;-74
2021/05/11 06:57:35;;;;;;;8.20;3.20;;;;;;;18.56;48.09;98866.98;125454;1104;103107;-74
2021/05/11 07:00:06;;;;;;;8.30;2.80;;;;;;;19.24;47.71;98856.84;125512;1104;103022;-74
2021/05/11 07:02:34;;;;;;;7.10;3.40;;;;;;;21.67;45.98;98851.98;125416;1100;103075;-73
2021/05/11 07:05:03;;;;;;;14.33;4.33;;;;;;;23.87;45.61;98853.14;125487;1104;103146;-74
2021/05/11 07:07:33;;;;;;;15.30;4.20;;;;;;;25.96;45.99;98853.91;127573;1104;101659;-73
2021/05/11 07:10:25;;;;;;;10.03;4.40;;;;;;;28.20;45.87;98841.54;126222;1100;102989;-73
2021/05/11 07:13:09;;;;;;;9.13;4.23;;;;;;;29.78;45.16;98851.23;125400;1104;102997;-73
2021/05/11 07:15:43;;;;;;;6.13;2.50;;;;;;;31.11;44.49;98849.20;125480;1104;102992;-76
2021/05/11 07:18:20;;;;;;;10.65;2.95;;;;;;;31.61;44.03;98849.32;125548;1104;103118;-75
2021/05/11 07:20:57;;;;;;;5.33;2.83;;;;;;;32.28;43.64;98849.26;125611;1104;102994;-74
2021/05/11 07:23:28;;;;;;;6.20;2.97;;;;;;;32.96;43.24;98835.84;125371;1100;102812;-74
2021/05/11 07:26:07;;;;;;;4.80;2.43;;;;;;;33.64;42.25;98828.78;125485;1104;102963;-73
2021/05/11 07:31:16;;;;;;;7.57;2.83;;;;;;;34.86;40.70;98842.23;125519;1104;103118;-74
2021/05/11 07:33:47;;;;;;;5.80;2.70;;;;;;;35.02;40.55;98843.06;125513;1104;102989;-72
2021/05/11 07:36:18;;;;;;;5.70;2.40;;;;;;;35.82;40.39;98843.38;125504;1104;103022;-74
2021/05/11 07:38:49;;;;;;;5.37;2.33;;;;;;;36.05;38.99;98841.89;125558;1104;103064;-74
2021/05/11 07:41:20;;;;;;;3.70;2.35;;;;;;;36.50;38.16;98838.28;125491;1104;103469;-72
2021/05/11 07:43:54;;;;;;;5.77;2.40;;;;;;;36.64;37.44;98832.89;125347;1100;103180;-72
2021/05/11 07:52:20;;;;;;;11.33;2.98;;;;;;;37.39;36.15;98826.04;125292;1105;102996;-77
2021/05/11 08:16:48;;;;;;;5.27;2.60;;;;;;;36.75;29.05;98809.53;125483;1100;103173;-75
2021/05/11 08:28:01;;;;;;;9.60;2.77;;;;;;;35.54;26.85;98807.00;125581;1104;103081;-75
2021/05/11 08:30:33;;;;;;;4.93;2.63;;;;;;;35.66;27.52;98800.32;125519;1104;103686;-75
2021/05/11 08:33:02;;;;;;;11.20;2.67;;;;;;;35.75;26.58;98795.82;125531;1104;103138;-74
2021/05/11 08:35:32;;;;;;;6.35;2.68;;;;;;;35.81;26.21;98802.17;125541;1104;103084;-75
2021/05/11 08:38:01;;;;;;;3.23;2.40;;;;;;;35.42;24.54;98801.78;125578;1104;102997;-73
2021/05/11 08:40:30;;;;;;;5.53;2.50;;;;;;;35.22;25.20;98799.92;125534;1105;103110;-73
2021/05/11 08:43:08;;;;;;;4.10;2.30;;;;;;;35.14;24.83;98804.07;125547;1104;103210;-73
2021/05/11 08:45:39;;;;;;;5.20;2.27;;;;;;;35.03;25.00;98805.23;125563;1104;103141;-73
2021/05/11 08:48:07;;;;;;;6.90;2.70;;;;;;;35.12;24.94;98811.81;125527;1104;103568;-74
2021/05/11 08:50:38;;;;;;;5.60;2.70;;;;;;;35.52;25.08;98805.62;125503;1104;103126;-73
2021/05/11 09:05:04;;;;;;;6.83;2.80;;;;;;;34.91;23.63;98794.42;125172;1104;103115;-76
2021/05/11 09:27:25;;;;;;;7.07;2.90;;;;;;;34.18;21.15;98787.27;125560;1104;103109;-74
2021/05/11 09:32:58;;;;;;;6.83;2.63;;;;;;;34.01;22.09;98782.86;125546;1104;102988;-75
2021/05/11 09:59:03;;;;;;;7.40;2.90;;;;;;;35.13;22.81;98758.20;125405;1104;103041;-75
2021/05/11 10:47:04;;;;;;;8.73;3.57;;;;;;;30.81;24.08;98729.58;125428;1104;103123;-76
2021/05/11 10:49:42;;;;;;;9.67;3.90;;;;;;;30.68;24.11;98732.70;125496;1100;103133;-77
2021/05/11 10:52:41;;;;;;;10.83;3.90;;;;;;;30.44;24.12;98730.95;125498;1104;102997;-76
2021/05/11 10:55:23;;;;;;;11.50;3.73;;;;;;;30.35;23.86;98726.97;125530;1099;103072;-74
2021/05/11 10:57:54;;;;;;;11.67;3.93;;;;;;;30.30;24.67;98722.24;125462;1104;103068;-74
2021/05/11 11:00:36;;;;;;;15.93;3.13;;;;;;;30.24;24.44;98714.16;125591;1104;103042;-74
2021/05/11 11:03:13;;;;;;;13.67;3.73;;;;;;;30.14;24.69;98723.06;125271;1100;103110;-73
2021/05/11 11:06:00;;;;;;;8.73;3.37;;;;;;;30.02;24.72;98714.92;125403;1104;103023;-74
2021/05/11 11:08:42;;;;;;;9.73;3.40;;;;;;;29.92;24.30;98721.03;125351;1099;103111;-74
2021/05/11 11:11:20;;;;;;;7.25;2.90;;;;;;;29.85;24.99;98720.36;125461;1100;103026;-73
2021/05/11 11:13:53;;;;;;;9.83;3.17;;;;;;;29.88;25.05;98719.86;125437;1100;103040;-74
2021/05/11 11:16:42;;;;;;;10.60;3.20;;;;;;;29.85;25.00;98704.72;125453;1104;103078;-72
2021/05/11 11:19:16;;;;;;;9.63;3.00;;;;;;;29.81;25.12;98713.70;125334;1105;103029;-75
2021/05/11 11:24:31;;;;;;;9.13;3.47;;;;;;;29.70;24.94;98715.43;125404;1104;103088;-73
2021/05/11 11:26:59;;;;;;;11.17;3.37;;;;;;;29.66;25.47;98708.78;125372;1104;103086;-72
2021/05/11 11:29:28;;;;;;;8.87;2.83;;;;;;;29.61;25.33;98711.42;125479;1100;103128;-74
2021/05/11 11:31:57;;;;;;;11.77;5.07;;;;;;;29.54;25.41;98695.95;125443;1104;103093;-74
2021/05/11 11:34:36;;;;;;;9.40;4.00;;;;;;;29.43;25.17;98701.49;125558;1104;103090;-74
2021/05/11 11:37:12;;;;;;;11.13;3.67;;;;;;;29.36;25.72;98701.59;125499;1100;103472;-75
2021/05/11 11:39:48;;;;;;;9.53;3.20;;;;;;;29.34;25.67;98701.84;125281;1099;103051;-72
2021/05/11 11:42:25;;;;;;;7.60;3.00;;;;;;;29.30;25.57;98694.38;125365;1104;103004;-75
2021/05/11 11:45:00;;;;;;;12.95;3.20;;;;;;;29.30;25.45;98695.19;125534;1104;103543;-72
2021/05/11 11:47:33;;;;;;;9.07;3.00;;;;;;;29.31;25.55;98691.38;125236;1104;103176;-74
2021/05/11 11:50:07;;;;;;;13.75;3.75;;;;;;;29.31;25.89;98691.38;125367;1105;103078;-74
2021/05/11 11:57:57;;;;;;;20.83;8.13;;;;;;;29.19;25.89;98677.73;125427;1104;103122;-75
2021/05/11 12:00:33;;;;;;;13.77;3.97;;;;;;;29.21;25.95;98675.58;125295;1100;103120;-74
2021/05/11 12:03:10;;;;;;;9.67;3.10;;;;;;;29.13;26.15;98669.67;125364;1104;103898;-74
2021/05/11 12:05:47;;;;;;;8.23;3.03;;;;;;;29.02;25.93;98658.50;127635;1104;101612;-73
2021/05/11 12:08:26;;;;;;;5.47;2.63;;;;;;;28.99;26.48;98666.36;127101;1104;101715;-74
2021/05/11 12:11:01;;;;;;;9.00;3.10;;;;;;;29.02;26.45;98665.88;125273;1104;102988;-74
2021/05/11 12:13:37;;;;;;;8.67;2.93;;;;;;;29.01;26.45;98661.47;125033;1104;103085;-74
2021/05/11 12:16:19;;;;;;;8.90;3.37;;;;;;;28.96;26.42;98657.55;127643;1104;100779;-73
2021/05/11 12:22:01;;;;;;;13.97;3.00;;;;;;;28.97;26.32;98659.22;125525;1100;103062;-75
2021/05/11 12:24:35;;;;;;;14.43;3.27;;;;;;;29.03;26.69;98651.11;125620;1104;103022;-75
2021/05/11 12:27:12;;;;;;;8.30;2.63;;;;;;;29.12;26.79;98641.44;125490;1104;103297;-73
2021/05/11 12:30:08;;;;;;;11.33;2.90;;;;;;;29.13;26.44;98637.63;125527;1104;103116;-74
2021/05/11 12:32:38;;;;;;;12.13;2.80;;;;;;;29.13;26.63;98632.16;125513;1104;103119;-74
2021/05/11 12:35:16;;;;;;;12.87;3.23;;;;;;;29.14;27.01;98633.81;125495;1099;103476;-73
2021/05/11 12:37:56;;;;;;;9.40;2.85;;;;;;;29.16;26.90;98626.19;125361;1105;103029;-73
2021/05/11 12:40:49;;;;;;;10.53;3.30;;;;;;;29.15;26.92;98624.53;125350;1099;102991;-72
2021/05/11 12:43:52;;;;;;;13.93;3.07;;;;;;;29.14;26.78;98628.34;125509;1104;102988;-72
2021/05/11 12:46:29;;;;;;;9.10;3.40;;;;;;;29.17;27.14;98618.80;125484;1104;103019;-74
2021/05/11 12:49:21;;;;;;;8.97;2.80;;;;;;;29.18;27.36;98617.72;125317;1104;103113;-74
2021/05/11 12:51:55;;;;;;;8.50;2.80;;;;;;;29.16;26.89;98617.13;125520;1104;103093;-73
2021/05/11 12:54:30;;;;;;;6.87;2.90;;;;;;;29.13;26.74;98621.20;125461;1100;103091;-73
2021/05/11 12:57:12;;;;;;;9.90;2.97;;;;;;;29.14;26.99;98605.63;125489;1104;103000;-73
2021/05/11 13:02:50;;;;;;;7.13;2.70;;;;;;;29.04;26.83;98608.97;125532;1099;103000;-75
2021/05/11 13:22:43;;;;;;;7.53;2.70;;;;;;;28.56;27.20;98592.66;125492;1104;102994;-72
2021/05/11 13:25:24;;;;;;;12.23;3.13;;;;;;;28.52;27.58;98589.59;125389;1100;103023;-71
2021/05/11 13:34:08;;;;;;;11.73;3.00;;;;;;;28.41;27.50;98579.49;125318;1100;103056;-72
2021/05/11 13:36:41;;;;;;;10.83;4.10;;;;;;;28.30;27.58;98580.36;125376;1105;103003;-73
2021/05/11 13:39:11;;;;;;;22.33;3.67;;;;;;;28.25;27.43;98577.52;125431;1104;103016;-71
2021/05/11 13:41:45;;;;;;;10.20;2.83;;;;;;;28.23;27.67;98575.00;125311;1104;103039;-71
2021/05/11 13:44:15;;;;;;;9.33;2.90;;;;;;;28.16;27.51;98564.20;125464;1104;103588;-73
2021/05/11 13:46:43;;;;;;;15.27;2.97;;;;;;;28.15;27.39;98569.89;125444;1105;103025;-72
2021/05/11 13:49:14;;;;;;;8.60;2.53;;;;;;;28.10;27.58;98561.58;125312;1104;103119;-73
2021/05/11 13:51:44;;;;;;;;;;;;;;;28.06;27.68;98572.14;125517;1104;103020;-73
2021/05/11 13:54:15;;;;;;;10.75;2.40;;;;;;;28.03;27.44;98567.14;125457;1104;103195;-73
2021/05/11 13:56:56;;;;;;;6.68;2.43;;;;;;;28.05;27.68;98565.00;125522;1104;103016;-71
2021/05/11 14:04:53;;;;;;;15.00;2.80;;;;;;;27.97;27.75;98557.16;125418;1099;103118;-76
2021/05/11 14:07:25;;;;;;;7.65;2.25;;;;;;;27.92;27.79;98545.03;125422;1104;103000;-76
2021/05/11 14:09:53;;;;;;;7.83;2.50;;;;;;;27.86;27.62;98542.44;125065;1100;103757;-76
2021/05/11 14:12:22;;;;;;;7.67;2.80;;;;;;;27.82;27.58;98546.70;125103;1104;103128;-74
2021/05/11 14:14:51;;;;;;;14.90;5.60;;;;;;;27.80;27.78;98552.42;125350;1104;103021;-73
2021/05/11 14:17:19;;;;;;;11.53;4.80;;;;;;;27.77;27.58;98553.71;125471;1099;103456;-73
2021/05/11 14:19:47;;;;;;;6.77;3.00;;;;;;;27.72;27.79;98545.39;125283;1104;103019;-74
2021/05/11 14:22:19;;;;;;;6.83;2.67;;;;;;;27.68;27.75;98544.23;125301;1104;103246;-73
2021/05/11 14:24:48;;;;;;;18.10;2.40;;;;;;;27.63;27.77;98541.38;125446;1104;103126;-75
2021/05/11 14:27:17;;;;;;;9.13;2.67;;;;;;;27.59;27.68;98534.72;125443;1104;103016;-76
2021/05/11 14:29:46;;;;;;;10.73;2.50;;;;;;;27.54;27.75;98532.67;125368;1105;103054;-75
2021/05/11 14:32:15;;;;;;;10.70;2.60;;;;;;;27.56;28.10;98518.80;125564;1099;103260;-74
2021/05/11 14:34:46;;;;;;;8.43;2.30;;;;;;;27.56;27.82;98529.72;125559;1104;103093;-72
2021/05/11 14:37:15;;;;;;;19.73;6.57;;;;;;;27.52;27.83;98528.53;125497;1104;102899;-72
2021/05/11 14:39:43;;;;;;;8.97;3.60;;;;;;;27.51;27.77;98532.33;125477;1104;103067;-75
2021/05/11 14:42:11;;;;;;;10.83;2.73;;;;;;;27.46;27.92;98533.01;125386;1104;103222;-74
2021/05/11 14:44:40;;;;;;;12.37;4.17;;;;;;;27.42;28.04;98532.63;125566;1104;103055;-75
2021/05/11 14:47:09;;;;;;;13.53;3.47;;;;;;;27.30;28.09;98532.61;125457;1104;103017;-73
2021/05/11 14:49:38;;;;;;;10.80;3.20;;;;;;;27.15;28.32;98519.41;125541;1104;102993;-70
2021/05/11 14:52:11;;;;;;;12.10;3.30;;;;;;;26.98;28.25;98516.52;125510;1104;103089;-71
2021/05/11 14:54:41;;;;;;;14.10;3.07;;;;;;;26.87;28.51;98514.58;125528;1100;103454;-71
2021/05/11 14:57:09;;;;;;;15.80;3.40;;;;;;;26.71;28.19;98513.30;125520;1104;103136;-78
2021/05/11 14:59:38;;;;;;;8.60;3.10;;;;;;;26.63;28.55;98519.06;125430;1104;103153;-75
2021/05/11 15:02:11;;;;;;;7.70;2.63;;;;;;;26.58;28.41;98504.22;125426;1104;103023;-76
2021/05/11 16:03:21;;;;;;;9.27;2.90;;;;;;;25.73;29.40;98481.30;125450;1095;103334;-76
2021/05/11 16:05:52;;;;;;;9.87;3.43;;;;;;;25.70;29.24;98477.11;125389;1100;103075;-77
2021/05/11 16:08:27;;;;;;;11.33;3.43;;;;;;;25.68;29.13;98475.69;125454;1100;103623;-74
2021/05/11 16:11:01;;;;;;;9.33;3.40;;;;;;;25.63;29.61;98479.09;125465;1100;103023;-75
2021/05/11 16:13:30;;;;;;;11.47;3.30;;;;;;;25.60;28.95;98467.80;125368;1099;103042;-74
2021/05/11 16:15:59;;;;;;;9.93;3.10;;;;;;;25.57;28.94;98479.98;125059;1100;103509;-73
2021/05/11 16:18:29;;;;;;;9.40;3.20;;;;;;;25.53;29.46;98470.59;125335;1104;103600;-73
2021/05/11 16:20:58;;;;;;;11.07;2.90;;;;;;;25.51;29.15;98472.70;125306;1104;103095;-74
2021/05/11 16:23:27;;;;;;;11.90;3.30;;;;;;;25.49;28.86;98477.55;125356;1104;103129;-76
2021/05/11 16:25:55;;;;;;;13.97;3.40;;;;;;;25.45;29.32;98476.31;125505;1104;102853;-73
2021/05/11 16:28:23;;;;;;;19.13;3.87;;;;;;;25.41;29.57;98470.47;125468;1104;103010;-73
2021/05/11 16:30:51;;;;;;;10.33;3.10;;;;;;;25.37;29.36;98477.41;125524;1104;103030;-76
2021/05/11 16:33:20;;;;;;;9.80;3.07;;;;;;;25.31;29.20;98475.58;125529;1099;103068;-74
2021/05/11 16:35:48;;;;;;;18.03;3.47;;;;;;;25.23;29.09;98477.52;125489;1104;103149;-75
2021/05/11 16:38:17;;;;;;;12.40;3.53;;;;;;;25.19;29.33;98475.47;125535;1104;102992;-73
2021/05/11 16:40:45;;;;;;;12.43;3.60;;;;;;;25.12;29.56;98481.80;125449;1104;103054;-73
2021/05/11 16:43:15;;;;;;;9.83;3.07;;;;;;;25.09;29.57;98471.34;125483;1104;103113;-74
2021/05/11 16:45:43;;;;;;;7.20;3.40;;;;;;;25.04;29.39;98476.61;127581;1104;101245;-72
2021/05/11 16:48:14;;;;;;;8.90;3.20;;;;;;;24.98;29.63;98480.21;127161;1104;101002;-73